Hlavní strana
METAR-TAF:

METAR-TAF

Letiště :

Algeciras, Španělsko

zeměpisná šířka: 36-07-44N, zeměpisná délka: 05-26-28W, výška: 30 m

Aktuální stav počasí

Zpráva byla vytvořena před 30 minutami, v 11:00 UTC
Bezvětří
Teplota 15°C
Vlhkost vzduchu 72%
Tlak 1028 hPa
Viditelnost 10 km a více
Žádná oblačnost pod 1500 m, nevyskytují se cumulonimby.

METAR: LEAG 101100Z AUTO 00000KT CAVOK 15/10 Q1028

Čas: 12:30 (11:30 UTC)


TAF: chybějící

Stav a předpovědi počasí z více než 4 000 letišť (zprávy METAR a TAF).

Červené a žluté tečky na mapě představují dostupné meteorologické stanice.

Když kurzor umístíte na tečku, zobrazí se název stanice.

Pak kliknutím zobrazíte stav a předpověď počasí.

Chcete-li změnit mapu, kliknutím na zelené tlačítko se znaménkem +mapu přiblížíte, kliknutím na zelené tlačítko se znaménkem – mapu oddálíte a kliknutím na zelené šipky přejdete na sousední mapy.


METAR-TAF: